Terminal Aerodrome Forecast
Issued by NWS Sioux Falls, SD

Home | Current Version | Previous Version | Graphics & Text | Print | Product List | Glossary On
Versions: 1 2 3 4 5 6 7 8 9 10 11 12 13 14 15 16 17
000
FTUS43 KFSD 202339
TAFSUX
TAF
KSUX 202339Z 2100/2124 04006KT P6SM VCSH OVC015
     FM210400 03004KT P6SM VCSH OVC008
     FM210600 VRB03KT P6SM OVC008
     FM211700 VRB03KT P6SM BKN010
     FM211900 23004KT P6SM SCT015
     FM212200 23004KT P6SM SCT035=

USA.gov is the U.S. government's official web portal to all federal, state and local government web resources and services.